createdAt,value
2018-07-06T00:00:16.699Z,35.23
2018-07-06T00:02:56.392Z,38.13
2018-07-06T00:05:36.112Z,41.00
2018-07-06T00:08:15.798Z,38.47
2018-07-06T00:10:55.648Z,40.90
2018-07-06T00:13:35.271Z,39.00
2018-07-06T00:16:15.067Z,37.87
2018-07-06T00:18:54.804Z,36.80
2018-07-06T00:21:34.608Z,40.03
2018-07-06T00:24:14.580Z,38.47
2018-07-06T00:26:54.473Z,42.37
2018-07-06T00:29:34.393Z,40.80
2018-07-06T00:32:14.056Z,41.27
2018-07-06T00:34:53.862Z,42.30
2018-07-06T00:37:33.409Z,41.40
2018-07-06T00:40:13.122Z,43.13
2018-07-06T00:42:52.820Z,39.10
2018-07-06T00:45:32.512Z,40.83
2018-07-06T00:48:12.025Z,42.10
2018-07-06T00:50:51.912Z,39.93
2018-07-06T00:53:31.581Z,42.50
2018-07-06T00:56:11.260Z,41.10
2018-07-06T00:58:51.078Z,43.00
2018-07-06T01:01:30.783Z,44.00
2018-07-06T01:04:10.605Z,44.00
2018-07-06T01:06:50.380Z,41.97
2018-07-06T01:09:30.240Z,41.60
2018-07-06T01:12:15.536Z,41.90
2018-07-06T01:14:55.328Z,40.20
2018-07-06T01:17:35.182Z,40.23
2018-07-06T01:20:15.045Z,40.27
2018-07-06T01:22:54.544Z,42.40
2018-07-06T01:25:34.137Z,44.67
2018-07-06T01:28:13.593Z,41.60
2018-07-06T01:30:53.280Z,42.07
2018-07-06T01:33:32.996Z,43.27
2018-07-06T01:36:12.965Z,43.40
2018-07-06T01:38:52.661Z,41.40
2018-07-06T01:41:32.428Z,38.10
2018-07-06T01:44:12.148Z,40.57
2018-07-06T01:46:51.904Z,39.67
2018-07-06T01:49:31.628Z,41.57
2018-07-06T01:52:05.343Z,41.37
2018-07-06T01:54:45.274Z,40.90
2018-07-06T01:57:24.921Z,41.77
2018-07-06T02:00:04.715Z,40.17
2018-07-06T02:02:44.680Z,40.27
2018-07-06T02:05:24.557Z,37.63
2018-07-06T02:08:04.760Z,42.67
2018-07-06T02:10:44.341Z,38.07
2018-07-06T02:13:23.989Z,39.63
2018-07-06T02:15:57.711Z,40.07
2018-07-06T02:18:37.608Z,39.10
2018-07-06T02:21:11.443Z,39.37
2018-07-06T02:23:51.360Z,39.07
2018-07-06T02:26:31.144Z,37.80
2018-07-06T02:29:11.052Z,39.50
2018-07-06T02:31:50.788Z,40.33
2018-07-06T02:34:30.571Z,38.00
2018-07-06T02:37:04.376Z,37.20
2018-07-06T02:39:38.280Z,39.70
2018-07-06T02:42:18.220Z,38.67
2018-07-06T02:44:57.992Z,37.87
2018-07-06T02:47:37.691Z,39.00
2018-07-06T02:50:17.184Z,37.97
2018-07-06T02:52:56.811Z,39.40
2018-07-06T02:55:36.570Z,38.23
2018-07-06T02:58:16.280Z,34.50
2018-07-06T03:00:56.035Z,38.37
2018-07-06T03:03:29.824Z,36.10
2018-07-06T03:06:09.723Z,37.67
2018-07-06T03:08:49.544Z,35.57
2018-07-06T03:11:29.405Z,37.97
2018-07-06T03:14:09.180Z,37.77
2018-07-06T03:16:49.031Z,37.53
2018-07-06T03:19:28.959Z,34.50
2018-07-06T03:22:08.664Z,33.40
2018-07-06T03:24:48.308Z,34.47
2018-07-06T03:27:22.019Z,36.30
2018-07-06T03:30:01.811Z,35.10
2018-07-06T03:32:41.556Z,38.07
2018-07-06T03:35:21.349Z,35.67
2018-07-06T03:38:01.124Z,37.37
2018-07-06T03:40:41.068Z,34.80
2018-07-06T03:43:20.675Z,34.93
2018-07-06T03:46:00.902Z,30.00
2018-07-06T03:48:40.790Z,34.73
2018-07-06T03:51:26.764Z,34.80
2018-07-06T03:54:06.335Z,34.97
2018-07-06T03:56:46.267Z,31.57
2018-07-06T03:59:25.884Z,35.07
2018-07-06T04:02:05.403Z,32.30
2018-07-06T04:04:45.132Z,35.50
2018-07-06T04:07:25.009Z,33.70
2018-07-06T04:10:04.637Z,32.10
2018-07-06T04:12:44.544Z,32.53
2018-07-06T04:15:24.369Z,32.80
2018-07-06T04:18:04.116Z,33.53
2018-07-06T04:20:44.012Z,32.97
2018-07-06T04:23:23.775Z,33.77
2018-07-06T04:25:57.487Z,31.80
2018-07-06T04:28:37.203Z,34.37
2018-07-06T04:31:16.925Z,32.77
2018-07-06T04:33:56.717Z,32.90
2018-07-06T04:36:36.528Z,30.87
2018-07-06T04:39:16.098Z,34.80
2018-07-06T04:41:49.714Z,32.83
2018-07-06T04:44:29.613Z,32.20
2018-07-06T04:47:09.427Z,33.17
2018-07-06T04:49:49.252Z,33.67
2018-07-06T04:52:29.197Z,31.07
2018-07-06T04:55:08.803Z,31.77
2018-07-06T04:57:48.283Z,31.50
2018-07-06T05:00:27.906Z,32.73
2018-07-06T05:03:07.491Z,33.17
2018-07-06T05:05:47.128Z,32.20
2018-07-06T05:08:27.629Z,33.07
2018-07-06T05:11:07.204Z,30.37
2018-07-06T05:13:46.792Z,31.60
2018-07-06T05:16:26.612Z,29.40
2018-07-06T05:19:06.521Z,30.40
2018-07-06T05:21:46.629Z,32.20
2018-07-06T05:24:26.543Z,30.47
2018-07-06T05:27:06.345Z,32.30
2018-07-06T05:29:46.215Z,30.33
2018-07-06T05:32:26.061Z,29.03
2018-07-06T05:35:06.049Z,30.57
2018-07-06T05:37:45.876Z,31.50
2018-07-06T05:40:25.604Z,30.30
2018-07-06T05:43:05.217Z,32.47
2018-07-06T05:45:45.085Z,30.20
2018-07-06T05:48:25.096Z,32.23
2018-07-06T05:51:04.860Z,31.20
2018-07-06T05:53:44.351Z,30.30
2018-07-06T05:56:30.477Z,29.77
2018-07-06T05:59:10.235Z,31.17
2018-07-06T06:01:50.209Z,29.13
2018-07-06T06:04:30.142Z,28.60
2018-07-06T06:07:09.953Z,30.10
2018-07-06T06:09:38.580Z,30.97
2018-07-06T06:12:07.210Z,31.07
2018-07-06T06:14:35.372Z,30.80
2018-07-06T06:17:03.853Z,29.47
2018-07-06T06:19:33.028Z,31.30
2018-07-06T06:22:01.584Z,31.10
2018-07-06T06:24:30.115Z,31.50
2018-07-06T06:26:58.637Z,29.60
2018-07-06T06:29:33.799Z,30.10
2018-07-06T06:32:03.742Z,28.10
2018-07-06T06:34:32.332Z,30.80
2018-07-06T06:37:01.208Z,29.20
2018-07-06T06:39:30.151Z,28.97
2018-07-06T06:41:58.680Z,28.90
2018-07-06T06:44:27.662Z,30.00
2018-07-06T06:46:56.911Z,30.20
2018-07-06T06:49:25.604Z,29.00
2018-07-06T06:51:54.540Z,31.70
2018-07-06T06:54:23.180Z,25.27
2018-07-06T06:56:52.864Z,25.43
2018-07-06T06:59:22.265Z,25.63
2018-07-06T07:01:50.867Z,20.10
2018-07-06T07:04:19.550Z,20.57
2018-07-06T07:06:48.188Z,23.63
2018-07-06T07:09:16.759Z,21.07
2018-07-06T07:11:45.984Z,21.90
2018-07-06T07:14:15.026Z,22.37
2018-07-06T07:16:43.545Z,23.77
2018-07-06T07:19:12.078Z,31.00
2018-07-06T07:21:40.741Z,28.97
2018-07-06T07:24:10.533Z,28.43
2018-07-06T07:26:39.161Z,29.77
2018-07-06T07:29:07.768Z,30.37
2018-07-06T07:31:36.353Z,33.07
2018-07-06T07:34:05.001Z,30.67
2018-07-06T07:36:33.653Z,39.50
2018-07-06T07:39:02.340Z,42.77
2018-07-06T07:41:30.863Z,37.77
2018-07-06T07:43:59.460Z,38.07
2018-07-06T07:46:28.083Z,44.43
2018-07-06T07:48:56.232Z,46.07
2018-07-06T07:52:03.196Z,41.87
2018-07-06T07:54:41.853Z,37.20
2018-07-06T07:57:11.099Z,41.40
2018-07-06T07:59:39.880Z,47.57
2018-07-06T08:02:08.433Z,49.73
2018-07-06T08:04:37.709Z,39.87
2018-07-06T08:07:06.247Z,48.50
2018-07-06T08:09:35.700Z,49.47
2018-07-06T08:12:04.807Z,55.13
2018-07-06T08:14:34.245Z,51.53
2018-07-06T08:17:02.713Z,56.27
2018-07-06T08:19:31.235Z,56.33
2018-07-06T08:21:59.769Z,59.33
2018-07-06T08:24:28.845Z,57.67
2018-07-06T08:26:57.384Z,63.10
2018-07-06T08:29:25.939Z,54.63
2018-07-06T08:31:54.498Z,70.23
2018-07-06T08:34:34.294Z,70.50
2018-07-06T08:37:45.531Z,79.07
2018-07-06T08:40:14.360Z,61.07
2018-07-06T08:42:45.860Z,60.90
2018-07-06T08:45:14.812Z,71.77
2018-07-06T08:47:44.049Z,82.60
2018-07-06T08:50:12.429Z,74.60
2018-07-06T08:52:42.129Z,69.47
2018-07-06T08:55:10.716Z,62.03
2018-07-06T08:57:40.157Z,69.03
2018-07-06T09:00:09.984Z,59.33
2018-07-06T09:02:45.374Z,74.57
2018-07-06T09:05:14.169Z,65.70
2018-07-06T09:07:42.774Z,68.13
2018-07-06T09:10:11.232Z,56.17
2018-07-06T09:12:40.217Z,67.67
2018-07-06T09:15:09.562Z,68.27
2018-07-06T09:17:38.166Z,63.97
2018-07-06T09:20:06.812Z,67.77
2018-07-06T09:22:35.188Z,65.13
2018-07-06T09:25:05.075Z,65.87
2018-07-06T09:27:33.809Z,62.20
2018-07-06T09:30:02.328Z,61.87
2018-07-06T09:32:30.879Z,70.50
2018-07-06T09:34:59.453Z,64.83
2018-07-06T09:37:28.169Z,72.10
2018-07-06T09:39:56.689Z,72.13
2018-07-06T09:42:25.203Z,75.53
2018-07-06T09:44:53.738Z,73.23
2018-07-06T09:47:22.336Z,68.47
2018-07-06T09:49:50.901Z,66.47
2018-07-06T09:52:19.390Z,60.60
2018-07-06T09:54:47.939Z,71.70
2018-07-06T09:57:16.491Z,74.10
2018-07-06T09:59:44.980Z,84.17
2018-07-06T10:02:13.515Z,78.47
2018-07-06T10:04:42.046Z,80.77
2018-07-06T10:07:10.555Z,78.00
2018-07-06T10:09:38.875Z,76.90
2018-07-06T10:12:07.503Z,78.73
2018-07-06T10:14:36.008Z,73.00
2018-07-06T10:17:04.245Z,83.27
2018-07-06T10:19:32.862Z,78.63
2018-07-06T10:22:01.413Z,71.40
2018-07-06T10:24:29.938Z,80.77
2018-07-06T10:26:58.458Z,82.10
2018-07-06T10:30:38.143Z,72.60
2018-07-06T10:33:06.923Z,84.53
2018-07-06T10:35:36.276Z,86.43
2018-07-06T10:38:05.700Z,85.77
2018-07-06T10:40:35.005Z,49.80
2018-07-06T10:43:03.549Z,74.47
2018-07-06T10:45:32.107Z,67.47
2018-07-06T10:48:00.613Z,80.03
2018-07-06T10:50:29.189Z,73.00
2018-07-06T10:52:57.744Z,67.17
2018-07-06T10:55:26.321Z,76.07
2018-07-06T10:57:54.843Z,87.33
2018-07-06T11:00:23.428Z,72.73
2018-07-06T11:02:52.011Z,66.53
2018-07-06T11:05:20.552Z,75.93
2018-07-06T11:07:49.303Z,71.70
2018-07-06T11:10:17.877Z,67.23
2018-07-06T11:12:46.411Z,72.17
2018-07-06T11:15:14.980Z,69.77
2018-07-06T11:17:43.740Z,71.07
2018-07-06T11:20:12.739Z,65.17
2018-07-06T11:22:41.317Z,65.37
2018-07-06T11:25:09.885Z,57.77
2018-07-06T11:27:38.427Z,61.20
2018-07-06T11:30:07.260Z,61.33
2018-07-06T11:32:35.815Z,54.43
2018-07-06T11:35:04.384Z,59.67
2018-07-06T11:37:32.921Z,62.47
2018-07-06T11:40:01.169Z,62.07
2018-07-06T11:42:29.733Z,62.03
2018-07-06T11:44:58.462Z,67.30
2018-07-06T11:47:26.944Z,62.20
2018-07-06T11:49:55.488Z,67.83
2018-07-06T11:52:24.184Z,71.27
2018-07-06T11:54:52.769Z,69.77
2018-07-06T11:57:21.298Z,70.33
2018-07-06T11:59:49.812Z,67.57
2018-07-06T12:02:18.307Z,63.93
2018-07-06T12:04:46.857Z,65.17
2018-07-06T12:07:15.361Z,70.23
2018-07-06T12:09:43.551Z,65.73
2018-07-06T12:12:12.069Z,57.57
2018-07-06T12:14:40.644Z,57.43
2018-07-06T12:17:09.189Z,60.57
2018-07-06T12:19:38.332Z,55.67
2018-07-06T12:22:06.841Z,55.23
2018-07-06T12:24:35.401Z,53.37
2018-07-06T12:27:04.057Z,51.27
2018-07-06T12:29:32.585Z,51.63
2018-07-06T12:32:01.125Z,51.17
2018-07-06T12:34:29.637Z,50.30
2018-07-06T12:36:58.211Z,50.87
2018-07-06T12:39:26.764Z,47.87
2018-07-06T12:41:55.262Z,45.97
2018-07-06T12:44:23.784Z,46.93
2018-07-06T12:46:52.317Z,44.43
2018-07-06T12:49:20.909Z,42.57
2018-07-06T12:51:49.518Z,45.13
2018-07-06T12:54:18.065Z,42.67
2018-07-06T12:56:47.459Z,41.03
2018-07-06T12:59:15.995Z,38.90
2018-07-06T13:01:44.542Z,39.57
2018-07-06T13:04:13.154Z,39.97
2018-07-06T13:06:41.689Z,35.77
2018-07-06T13:09:10.192Z,34.80
2018-07-06T13:11:39.279Z,32.93
2018-07-06T13:14:07.945Z,33.80
2018-07-06T13:16:36.845Z,33.50
2018-07-06T13:19:05.500Z,32.93
2018-07-06T13:21:34.072Z,28.97
2018-07-06T13:24:02.720Z,31.63
2018-07-06T13:26:31.313Z,30.47
2018-07-06T13:29:00.413Z,29.33
2018-07-06T13:31:29.071Z,29.20
2018-07-06T13:33:57.644Z,27.40
2018-07-06T13:36:26.144Z,27.80
2018-07-06T13:38:54.704Z,28.63
2018-07-06T13:41:23.219Z,28.17
2018-07-06T13:43:52.203Z,26.17
2018-07-06T13:46:20.773Z,23.93
2018-07-06T13:48:49.928Z,26.90
2018-07-06T13:51:19.077Z,25.30
2018-07-06T13:53:48.256Z,21.57
2018-07-06T13:56:16.863Z,24.00
2018-07-06T13:58:45.477Z,23.40
2018-07-06T14:01:14.088Z,22.10
2018-07-06T14:03:42.593Z,22.23
2018-07-06T14:06:11.236Z,23.07
2018-07-06T14:08:39.813Z,22.00
2018-07-06T14:11:08.320Z,22.00
2018-07-06T14:13:37.558Z,20.77
2018-07-06T14:16:06.120Z,19.70
2018-07-06T14:18:34.704Z,21.20
2018-07-06T14:21:03.298Z,21.90
2018-07-06T14:23:31.812Z,19.70
2018-07-06T14:26:00.348Z,19.10
2018-07-06T14:28:29.046Z,18.57
2018-07-06T14:30:57.691Z,18.87
2018-07-06T14:33:26.275Z,18.03
2018-07-06T14:35:54.585Z,20.40
2018-07-06T14:38:23.110Z,17.00
2018-07-06T14:40:51.671Z,18.37
2018-07-06T14:43:20.299Z,18.97
2018-07-06T14:45:48.819Z,18.83
2018-07-06T14:48:17.457Z,17.57
2018-07-06T14:50:46.208Z,17.63
2018-07-06T14:53:14.877Z,18.00
2018-07-06T14:55:44.166Z,16.47
2018-07-06T14:58:12.735Z,16.40
2018-07-06T15:00:41.390Z,16.50
2018-07-06T15:03:10.161Z,14.47
2018-07-06T15:05:38.803Z,15.73
2018-07-06T15:08:07.826Z,15.60
2018-07-06T15:10:37.101Z,14.10
2018-07-06T15:13:06.023Z,14.33
2018-07-06T15:15:35.425Z,15.20
2018-07-06T15:18:03.970Z,14.87
2018-07-06T15:20:39.267Z,14.40
2018-07-06T15:23:07.792Z,14.83
2018-07-06T15:25:36.352Z,14.60
2018-07-06T15:28:04.991Z,14.77
2018-07-06T15:30:33.650Z,16.90
2018-07-06T15:33:02.172Z,16.20
2018-07-06T15:35:30.765Z,15.50
2018-07-06T15:37:59.317Z,14.70
2018-07-06T15:40:28.736Z,13.47
2018-07-06T15:42:57.300Z,14.37
2018-07-06T15:45:25.806Z,12.97
2018-07-06T15:47:55.082Z,13.27
2018-07-06T15:50:23.603Z,14.27
2018-07-06T15:52:52.217Z,14.87
2018-07-06T15:55:20.949Z,13.83
2018-07-06T15:57:49.580Z,14.20
2018-07-06T16:00:18.281Z,11.83
2018-07-06T16:02:47.396Z,11.80
2018-07-06T16:05:15.941Z,14.30
2018-07-06T16:07:44.512Z,16.00
2018-07-06T16:10:13.111Z,13.00
2018-07-06T16:12:41.630Z,15.30
2018-07-06T16:15:10.210Z,16.17
2018-07-06T16:17:39.420Z,22.00
2018-07-06T16:20:07.978Z,13.03
2018-07-06T16:22:36.509Z,12.80
2018-07-06T16:25:05.092Z,12.87
2018-07-06T16:27:33.889Z,12.33
2018-07-06T16:30:02.444Z,14.33
2018-07-06T16:32:30.957Z,14.07
2018-07-06T16:34:59.566Z,15.43
2018-07-06T16:37:28.144Z,15.77
2018-07-06T16:39:56.764Z,16.80
2018-07-06T16:42:25.295Z,18.30
2018-07-06T16:44:53.832Z,19.50
2018-07-06T16:47:23.130Z,18.27
2018-07-06T16:49:51.828Z,19.80
2018-07-06T16:52:20.716Z,20.87
2018-07-06T16:54:49.119Z,20.47
2018-07-06T16:57:17.649Z,21.33
2018-07-06T16:59:46.208Z,19.20
2018-07-06T17:02:14.422Z,18.50
2018-07-06T17:04:42.951Z,19.30
2018-07-06T17:07:11.545Z,17.80
2018-07-06T17:09:40.074Z,18.83
2018-07-06T17:12:08.612Z,18.27
2018-07-06T17:14:37.119Z,19.30
2018-07-06T17:17:05.285Z,18.30
2018-07-06T17:19:33.796Z,18.87
2018-07-06T17:22:02.373Z,17.73
2018-07-06T17:24:30.904Z,17.67
2018-07-06T17:26:59.432Z,17.30
2018-07-06T17:29:28.818Z,17.50
2018-07-06T17:31:57.363Z,17.00
2018-07-06T17:34:25.847Z,18.00
2018-07-06T17:36:54.680Z,18.20
2018-07-06T17:39:23.180Z,17.67
2018-07-06T17:41:51.725Z,17.07
2018-07-06T17:44:20.314Z,16.37
2018-07-06T17:46:48.752Z,17.30
2018-07-06T17:49:17.241Z,16.57
2018-07-06T17:51:45.984Z,16.20
2018-07-06T17:54:14.668Z,17.23
2018-07-06T17:56:43.203Z,15.47
2018-07-06T17:59:11.742Z,16.07
2018-07-06T18:01:40.305Z,16.27
2018-07-06T18:04:08.844Z,15.10
2018-07-06T18:06:37.336Z,14.90
2018-07-06T18:09:06.457Z,15.73
2018-07-06T18:11:35.026Z,15.77
2018-07-06T18:14:04.532Z,15.43
2018-07-06T18:16:33.097Z,16.13
2018-07-06T18:19:01.701Z,14.40
2018-07-06T18:21:30.371Z,14.77
2018-07-06T18:23:58.973Z,14.40
2018-07-06T18:26:27.517Z,15.60
2018-07-06T18:28:55.844Z,13.50
2018-07-06T18:31:24.598Z,13.20
2018-07-06T18:33:53.080Z,14.57
2018-07-06T18:36:21.841Z,13.70
2018-07-06T18:38:50.411Z,14.43
2018-07-06T18:41:18.952Z,15.33
2018-07-06T18:43:47.509Z,13.47
2018-07-06T18:46:16.059Z,13.37
2018-07-06T18:48:44.573Z,14.37
2018-07-06T18:51:13.074Z,14.07
2018-07-06T18:53:42.500Z,13.63
2018-07-06T18:56:11.040Z,13.50
2018-07-06T18:58:39.929Z,13.27
2018-07-06T19:01:08.516Z,12.67
2018-07-06T19:03:37.179Z,13.87
2018-07-06T19:06:05.780Z,13.50
2018-07-06T19:08:34.488Z,12.73
2018-07-06T19:11:03.013Z,12.70
2018-07-06T19:13:31.560Z,13.47
2018-07-06T19:16:00.050Z,12.90
2018-07-06T19:18:28.603Z,12.67
2018-07-06T19:20:57.113Z,12.77
2018-07-06T19:23:25.928Z,13.20
2018-07-06T19:25:54.712Z,12.83
2018-07-06T19:28:23.229Z,12.50
2018-07-06T19:30:51.971Z,11.70
2018-07-06T19:33:20.892Z,11.80
2018-07-06T19:35:49.381Z,11.73
2018-07-06T19:38:20.832Z,12.13
2018-07-06T19:40:49.415Z,12.53
2018-07-06T19:43:17.942Z,12.27
2018-07-06T19:45:46.510Z,11.13
2018-07-06T19:48:15.081Z,11.70
2018-07-06T19:50:43.644Z,12.20
2018-07-06T19:53:12.120Z,12.40
2018-07-06T19:55:40.650Z,12.27
2018-07-06T19:58:09.263Z,12.10
2018-07-06T20:00:37.796Z,11.90
2018-07-06T20:03:06.352Z,11.10
2018-07-06T20:05:34.900Z,11.60
2018-07-06T20:08:03.531Z,11.17
2018-07-06T20:10:32.081Z,12.30
2018-07-06T20:13:00.640Z,11.47
2018-07-06T20:15:29.142Z,12.07
2018-07-06T20:17:57.675Z,11.30
2018-07-06T20:20:26.281Z,11.23
2018-07-06T20:22:54.785Z,11.90
2018-07-06T20:25:23.431Z,11.40
2018-07-06T20:27:52.636Z,11.07
2018-07-06T20:30:21.109Z,11.33
2018-07-06T20:32:49.659Z,11.50
2018-07-06T20:35:19.436Z,11.90
2018-07-06T20:37:47.959Z,10.73
2018-07-06T20:40:16.541Z,12.27
2018-07-06T20:42:45.492Z,11.90
2018-07-06T20:45:14.019Z,11.13
2018-07-06T20:47:42.569Z,11.53
2018-07-06T20:50:11.078Z,11.33
2018-07-06T20:52:39.568Z,11.40
2018-07-06T20:55:08.084Z,10.87
2018-07-06T20:57:37.228Z,11.73
2018-07-06T21:00:05.952Z,12.00
2018-07-06T21:02:34.508Z,11.27
2018-07-06T21:05:03.124Z,11.17
2018-07-06T21:07:31.335Z,10.33
2018-07-06T21:09:59.940Z,10.90
2018-07-06T21:12:28.547Z,11.17
2018-07-06T21:14:57.245Z,11.40
2018-07-06T21:17:26.961Z,11.43
2018-07-06T21:19:55.528Z,11.43
2018-07-06T21:22:24.099Z,11.47
2018-07-06T21:24:53.132Z,10.70
2018-07-06T21:27:21.740Z,11.20
2018-07-06T21:29:50.387Z,11.07
2018-07-06T21:32:18.873Z,11.37
2018-07-06T21:34:47.671Z,11.20
2018-07-06T21:37:16.276Z,10.30
2018-07-06T21:39:44.828Z,11.20
2018-07-06T21:42:13.380Z,11.67
2018-07-06T21:44:41.935Z,10.77
2018-07-06T21:47:10.472Z,12.20
2018-07-06T21:49:39.036Z,11.10
2018-07-06T21:52:07.592Z,11.30
2018-07-06T21:54:36.148Z,11.80
2018-07-06T21:57:04.788Z,11.47
2018-07-06T21:59:33.031Z,11.80
2018-07-06T22:02:01.599Z,11.20
2018-07-06T22:04:30.140Z,11.53
2018-07-06T22:06:58.711Z,10.57
2018-07-06T22:09:27.253Z,11.07
2018-07-06T22:11:55.776Z,10.57
2018-07-06T22:14:24.284Z,11.23
2018-07-06T22:16:52.793Z,11.20
2018-07-06T22:19:21.043Z,11.60
2018-07-06T22:21:49.562Z,12.10
2018-07-06T22:24:17.792Z,10.70
2018-07-06T22:26:46.289Z,11.40
2018-07-06T22:29:14.828Z,11.97
2018-07-06T22:31:42.995Z,12.40
2018-07-06T22:34:11.150Z,12.17
2018-07-06T22:36:39.639Z,12.00
2018-07-06T22:39:08.968Z,11.60
2018-07-06T22:41:37.533Z,12.30
2018-07-06T22:44:06.025Z,11.80
2018-07-06T22:46:35.387Z,11.90
2018-07-06T22:49:03.984Z,11.33
2018-07-06T22:51:32.504Z,11.70
2018-07-06T22:54:01.326Z,11.57
2018-07-06T22:56:30.090Z,12.73
2018-07-06T22:58:58.688Z,11.63
2018-07-06T23:01:27.236Z,11.40
2018-07-06T23:03:55.742Z,11.63
2018-07-06T23:06:24.360Z,11.47
2018-07-06T23:08:52.825Z,11.73
2018-07-06T23:11:21.291Z,12.20
2018-07-06T23:13:49.808Z,11.00
2018-07-06T23:16:18.292Z,11.23
2018-07-06T23:18:46.800Z,11.67
2018-07-06T23:21:15.388Z,12.10
2018-07-06T23:23:43.924Z,11.70
2018-07-06T23:26:12.452Z,11.87
2018-07-06T23:28:40.932Z,11.90
2018-07-06T23:31:09.128Z,12.07
2018-07-06T23:33:37.629Z,11.90
2018-07-06T23:36:06.217Z,11.03
2018-07-06T23:38:34.736Z,12.10
2018-07-06T23:41:03.312Z,11.80
2018-07-06T23:43:32.137Z,12.20
2018-07-06T23:46:00.708Z,11.67
2018-07-06T23:48:29.273Z,12.30
2018-07-06T23:50:57.811Z,12.50
2018-07-06T23:53:26.288Z,12.30
2018-07-06T23:55:54.792Z,12.23
2018-07-06T23:58:23.336Z,11.77
